createdAt,value
2023-02-13T00:03:52.612Z,7.50
2023-02-13T00:08:54.950Z,7.50
2023-02-13T00:13:58.202Z,7.50
2023-02-13T00:19:00.293Z,7.50
2023-02-13T00:24:02.408Z,7.60
2023-02-13T00:29:04.522Z,7.70
2023-02-13T00:34:06.590Z,7.60
2023-02-13T00:39:11.099Z,7.60
2023-02-13T00:44:13.265Z,7.70
2023-02-13T00:49:15.313Z,7.60
2023-02-13T00:54:17.512Z,7.60
2023-02-13T00:59:19.832Z,7.50
2023-02-13T01:04:21.933Z,7.50
2023-02-13T01:09:24.554Z,7.60
2023-02-13T01:14:26.619Z,7.50
2023-02-13T01:19:28.723Z,7.50
2023-02-13T01:24:33.367Z,7.60
2023-02-13T01:29:35.694Z,7.50
2023-02-13T01:34:37.751Z,7.40
2023-02-13T01:39:39.824Z,7.40
2023-02-13T01:44:46.300Z,7.50
2023-02-13T01:49:55.891Z,7.40
2023-02-13T01:54:58.028Z,7.50
2023-02-13T02:00:12.650Z,7.40
2023-02-13T02:05:23.511Z,7.40
2023-02-13T02:10:26.050Z,7.50
2023-02-13T02:15:29.067Z,7.60
2023-02-13T02:21:02.303Z,7.70
2023-02-13T02:26:51.912Z,7.60
2023-02-13T02:32:36.047Z,7.70
2023-02-13T02:38:06.888Z,7.70
2023-02-13T02:43:17.639Z,7.70
2023-02-13T02:48:47.792Z,7.80
2023-02-13T02:54:28.531Z,7.70
2023-02-13T02:59:51.513Z,7.80
2023-02-13T03:05:14.899Z,7.70
2023-02-13T03:10:45.018Z,7.70
2023-02-13T03:16:09.204Z,7.70
2023-02-13T03:21:46.245Z,7.80
2023-02-13T03:27:06.962Z,7.70
2023-02-13T03:32:31.989Z,7.60
2023-02-13T03:37:54.592Z,7.60
2023-02-13T03:43:13.707Z,7.60
2023-02-13T03:48:48.318Z,7.60
2023-02-13T03:53:56.176Z,7.50
2023-02-13T03:59:19.128Z,7.50
2023-02-13T04:04:27.809Z,7.50
2023-02-13T04:09:32.845Z,7.50
2023-02-13T04:14:52.721Z,7.40
2023-02-13T04:19:55.188Z,7.50
2023-02-13T04:24:57.388Z,7.50
2023-02-13T04:29:59.414Z,7.80
2023-02-13T04:35:01.548Z,7.70
2023-02-13T04:40:03.952Z,7.60
2023-02-13T04:45:06.558Z,7.50
2023-02-13T04:50:09.245Z,7.40
2023-02-13T04:55:11.446Z,7.40
2023-02-13T05:00:13.965Z,7.40
2023-02-13T05:05:16.399Z,7.40
2023-02-13T05:10:18.552Z,7.30
2023-02-13T05:15:20.912Z,7.20
2023-02-13T05:20:23.415Z,7.30
2023-02-13T05:25:25.588Z,7.20
2023-02-13T05:30:27.869Z,7.30
2023-02-13T05:35:30.035Z,7.40
2023-02-13T05:40:32.115Z,7.50
2023-02-13T05:45:34.216Z,7.40
2023-02-13T05:50:36.334Z,7.40
2023-02-13T05:55:39.576Z,7.40
2023-02-13T06:00:41.678Z,7.50
2023-02-13T06:05:43.818Z,7.50
2023-02-13T06:10:47.269Z,7.50
2023-02-13T06:15:50.835Z,7.40
2023-02-13T06:20:53.142Z,7.30
2023-02-13T06:25:55.307Z,7.30
2023-02-13T06:30:57.905Z,7.40
2023-02-13T06:36:00.424Z,7.50
2023-02-13T06:41:02.526Z,7.40
2023-02-13T06:46:08.842Z,7.50
2023-02-13T06:51:10.969Z,7.50
2023-02-13T06:56:13.101Z,7.60
2023-02-13T07:01:15.282Z,7.60
2023-02-13T07:06:21.250Z,7.50
2023-02-13T07:11:25.488Z,7.40
2023-02-13T07:16:27.611Z,7.50
2023-02-13T07:21:29.970Z,7.50
2023-02-13T07:26:32.042Z,7.60
2023-02-13T07:31:34.755Z,7.60
2023-02-13T07:36:36.874Z,7.60
2023-02-13T07:41:39.827Z,7.50
2023-02-13T07:46:42.819Z,7.60
2023-02-13T07:51:44.920Z,7.70
2023-02-13T07:56:46.968Z,7.70
2023-02-13T08:01:49.181Z,7.80
2023-02-13T08:06:51.252Z,7.80
2023-02-13T08:11:54.158Z,7.80
2023-02-13T08:16:56.826Z,7.70
2023-02-13T08:21:59.128Z,7.80
2023-02-13T08:27:01.234Z,7.90
2023-02-13T08:32:03.545Z,7.90
2023-02-13T08:37:05.668Z,7.70
2023-02-13T08:42:07.817Z,7.70
2023-02-13T08:47:10.207Z,7.70
2023-02-13T08:52:12.411Z,7.80
2023-02-13T08:57:14.550Z,8.00
2023-02-13T09:02:16.625Z,7.80
2023-02-13T09:07:18.703Z,8.00
2023-02-13T09:12:20.821Z,8.10
2023-02-13T09:17:22.990Z,8.10
2023-02-13T09:22:25.419Z,8.20
2023-02-13T09:27:27.685Z,8.30
2023-02-13T09:32:29.893Z,8.10
2023-02-13T09:37:32.127Z,7.90
2023-02-13T09:42:37.127Z,7.90
2023-02-13T09:47:44.716Z,8.10
2023-02-13T09:52:48.191Z,8.10
2023-02-13T09:58:16.398Z,8.20
2023-02-13T10:03:43.977Z,8.30
2023-02-13T10:08:54.863Z,8.40
2023-02-13T10:14:09.117Z,8.50
2023-02-13T10:19:22.875Z,8.60
2023-02-13T10:24:40.544Z,8.70
2023-02-13T10:30:12.849Z,8.80
2023-02-13T10:35:20.028Z,8.90
2023-02-13T10:40:36.972Z,9.10
2023-02-13T10:46:11.949Z,9.00
2023-02-13T10:51:35.456Z,8.90
2023-02-13T10:56:50.264Z,8.80
2023-02-13T11:02:02.308Z,9.00
2023-02-13T11:07:11.582Z,9.00
2023-02-13T11:12:43.151Z,8.90
2023-02-13T11:17:46.752Z,9.10
2023-02-13T11:22:49.406Z,9.20
2023-02-13T11:28:04.796Z,9.10
2023-02-13T11:33:28.139Z,9.00
2023-02-13T11:38:30.254Z,9.40
2023-02-13T11:43:44.196Z,9.40
2023-02-13T11:49:07.647Z,9.50
2023-02-13T11:54:34.736Z,9.60
2023-02-13T11:59:43.228Z,9.70
2023-02-13T12:04:45.977Z,9.70
2023-02-13T12:10:01.877Z,9.50
2023-02-13T12:15:19.161Z,9.40
2023-02-13T12:20:21.509Z,9.20
2023-02-13T12:26:10.863Z,9.20
2023-02-13T12:31:42.559Z,9.50
2023-02-13T12:37:06.382Z,9.80
2023-02-13T12:42:17.546Z,9.90
2023-02-13T12:47:23.348Z,9.60
2023-02-13T12:52:53.267Z,9.30
2023-02-13T12:57:58.478Z,9.40
2023-02-13T13:03:31.246Z,9.60
2023-02-13T13:08:47.628Z,9.50
2023-02-13T13:13:52.594Z,9.50
2023-02-13T13:19:42.673Z,9.50
2023-02-13T13:25:02.816Z,9.40
2023-02-13T13:30:14.793Z,9.40
2023-02-13T13:35:19.221Z,9.60
2023-02-13T13:40:34.167Z,9.60
2023-02-13T13:45:43.351Z,9.80
2023-02-13T13:50:46.385Z,9.70
2023-02-13T13:55:55.986Z,9.70
2023-02-13T14:01:16.964Z,9.80
2023-02-13T14:06:22.074Z,9.70
2023-02-13T14:11:36.740Z,9.70
2023-02-13T14:16:45.574Z,9.70
2023-02-13T14:21:47.697Z,9.70
2023-02-13T14:27:05.148Z,9.50
2023-02-13T14:32:27.209Z,9.30
2023-02-13T14:38:01.124Z,9.50
2023-02-13T14:43:15.232Z,9.40
2023-02-13T14:48:17.745Z,9.40
2023-02-13T14:53:53.171Z,9.50
2023-02-13T14:59:11.753Z,9.40
2023-02-13T15:04:50.858Z,9.20
2023-02-13T15:10:28.595Z,9.30
2023-02-13T15:15:34.146Z,9.40
2023-02-13T15:20:39.930Z,9.40
2023-02-13T15:25:42.071Z,9.40
2023-02-13T15:31:01.232Z,9.40
2023-02-13T15:36:06.403Z,9.40
2023-02-13T15:41:18.951Z,9.20
2023-02-13T15:46:35.845Z,9.20
2023-02-13T15:51:37.952Z,9.20
2023-02-13T15:56:45.448Z,9.20
2023-02-13T16:01:50.755Z,9.10
2023-02-13T16:06:55.868Z,9.00
2023-02-13T16:12:20.653Z,8.80
2023-02-13T16:17:33.342Z,8.80
2023-02-13T16:22:38.813Z,8.50
2023-02-13T16:27:49.963Z,8.60
2023-02-13T16:32:52.396Z,8.60
2023-02-13T16:37:58.850Z,8.50
2023-02-13T16:43:38.633Z,8.50
2023-02-13T16:48:44.828Z,8.50
2023-02-13T16:53:47.013Z,8.40
2023-02-13T16:58:49.084Z,8.30
2023-02-13T17:03:51.314Z,8.30
2023-02-13T17:08:53.946Z,8.30
2023-02-13T17:13:56.060Z,8.20
2023-02-13T17:18:58.378Z,8.20
2023-02-13T17:24:02.338Z,8.20
2023-02-13T17:29:04.494Z,8.30
2023-02-13T17:34:06.665Z,8.20
2023-02-13T17:39:08.882Z,8.20
2023-02-13T17:44:14.711Z,8.10
2023-02-13T17:49:16.871Z,8.10
2023-02-13T17:54:19.000Z,8.10
2023-02-13T17:59:21.066Z,8.00
2023-02-13T18:04:23.157Z,8.00
2023-02-13T18:09:25.348Z,8.00
2023-02-13T18:14:33.545Z,8.10
2023-02-13T18:19:35.704Z,8.00
2023-02-13T18:24:40.432Z,8.00
2023-02-13T18:29:42.926Z,7.90
2023-02-13T18:34:47.126Z,8.00
2023-02-13T18:39:50.969Z,8.00
2023-02-13T18:44:53.847Z,7.80
2023-02-13T18:49:56.037Z,7.70
2023-02-13T18:54:58.224Z,7.60
2023-02-13T19:00:00.673Z,7.60
2023-02-13T19:05:03.616Z,7.60
2023-02-13T19:10:07.142Z,7.50
2023-02-13T19:15:10.305Z,7.30
2023-02-13T19:20:14.384Z,7.10
2023-02-13T19:25:19.210Z,6.80
2023-02-13T19:30:21.620Z,6.60
2023-02-13T19:35:24.011Z,6.50
2023-02-13T19:40:26.254Z,6.30
2023-02-13T19:45:28.587Z,6.20
2023-02-13T19:50:30.753Z,6.00
2023-02-13T19:55:35.952Z,6.00
2023-02-13T20:00:38.024Z,5.90
2023-02-13T20:05:41.045Z,5.80
2023-02-13T20:10:49.133Z,5.70
2023-02-13T20:15:51.364Z,5.50
2023-02-13T20:20:54.354Z,5.40
2023-02-13T20:25:56.429Z,5.30
2023-02-13T20:30:59.249Z,5.20
2023-02-13T20:36:09.268Z,5.10
2023-02-13T20:41:17.220Z,5.00
2023-02-13T20:46:20.031Z,4.90
2023-02-13T20:51:22.168Z,4.80
2023-02-13T20:56:25.256Z,4.80
2023-02-13T21:01:33.653Z,4.80
2023-02-13T21:06:37.408Z,4.70
2023-02-13T21:11:42.184Z,4.70
2023-02-13T21:16:44.623Z,4.60
2023-02-13T21:21:47.195Z,4.50
2023-02-13T21:26:52.515Z,4.40
2023-02-13T21:31:54.768Z,4.40
2023-02-13T21:36:57.546Z,4.30
2023-02-13T21:41:59.806Z,4.20
2023-02-13T21:47:02.327Z,4.10
2023-02-13T21:52:04.613Z,4.10
2023-02-13T21:57:06.788Z,4.00
2023-02-13T22:02:10.022Z,3.90
2023-02-13T22:07:12.167Z,3.90
2023-02-13T22:12:14.363Z,3.90
2023-02-13T22:17:16.561Z,3.80
2023-02-13T22:22:18.836Z,3.80
2023-02-13T22:27:20.958Z,3.70
2023-02-13T22:32:23.304Z,3.70
2023-02-13T22:37:25.550Z,3.60
2023-02-13T22:42:27.794Z,3.50
2023-02-13T22:47:30.216Z,3.50
2023-02-13T22:52:32.312Z,3.60
2023-02-13T22:57:34.452Z,3.70
2023-02-13T23:02:36.613Z,3.80
2023-02-13T23:07:38.693Z,3.70
2023-02-13T23:12:41.076Z,3.70
2023-02-13T23:18:01.902Z,3.70
2023-02-13T23:23:04.922Z,3.70
2023-02-13T23:28:07.550Z,3.80
2023-02-13T23:33:09.686Z,3.80
2023-02-13T23:38:11.757Z,3.80
2023-02-13T23:43:13.866Z,3.50
2023-02-13T23:48:16.334Z,3.30
2023-02-13T23:53:18.456Z,3.20
2023-02-13T23:58:20.879Z,3.20
